createdAt,value
2017-02-27T00:00:35.456Z,0
2017-02-27T00:01:46.177Z,0
2017-02-27T00:02:56.881Z,0
2017-02-27T00:04:07.604Z,0
2017-02-27T00:05:18.307Z,0
2017-02-27T00:06:29.021Z,0
2017-02-27T00:07:39.714Z,0
2017-02-27T00:08:50.406Z,0
2017-02-27T00:10:01.122Z,0
2017-02-27T00:11:11.036Z,0
2017-02-27T00:12:21.743Z,0
2017-02-27T00:13:32.439Z,0
2017-02-27T00:14:43.153Z,0
2017-02-27T00:15:53.840Z,0
2017-02-27T00:17:04.546Z,0
2017-02-27T00:18:15.243Z,0
2017-02-27T00:19:25.570Z,0
2017-02-27T00:20:35.859Z,0
2017-02-27T00:21:46.552Z,0
2017-02-27T00:22:57.252Z,0
2017-02-27T00:24:07.947Z,0
2017-02-27T00:25:18.657Z,0
2017-02-27T00:26:29.346Z,0
2017-02-27T00:27:40.056Z,0
2017-02-27T00:28:50.761Z,0
2017-02-27T00:30:01.476Z,0
2017-02-27T00:31:11.771Z,0
2017-02-27T00:32:22.483Z,0
2017-02-27T00:33:32.794Z,0
2017-02-27T00:34:43.520Z,0
2017-02-27T00:35:54.214Z,0
2017-02-27T00:37:04.910Z,0
2017-02-27T00:38:15.634Z,0
2017-02-27T00:39:26.340Z,0
2017-02-27T00:40:36.644Z,0
2017-02-27T00:41:47.369Z,0
2017-02-27T00:42:58.076Z,0
2017-02-27T00:44:08.768Z,0
2017-02-27T00:45:19.478Z,0
2017-02-27T00:46:29.829Z,0
2017-02-27T00:47:40.540Z,0
2017-02-27T00:48:51.258Z,0
2017-02-27T00:50:01.961Z,0
2017-02-27T00:51:12.675Z,0
2017-02-27T00:52:23.374Z,0
2017-02-27T00:53:34.121Z,0
2017-02-27T00:54:44.827Z,0
2017-02-27T00:55:55.527Z,0
2017-02-27T00:57:06.228Z,0
2017-02-27T00:58:16.928Z,0
2017-02-27T00:59:27.627Z,0
2017-02-27T01:00:37.983Z,0
2017-02-27T01:01:48.738Z,0
2017-02-27T01:02:59.464Z,0
2017-02-27T01:04:10.174Z,0
2017-02-27T01:05:20.875Z,0
2017-02-27T01:06:31.184Z,0
2017-02-27T01:07:41.887Z,0
2017-02-27T01:08:52.589Z,0
2017-02-27T01:10:03.284Z,0
2017-02-27T01:11:14.005Z,0
2017-02-27T01:12:24.715Z,0
2017-02-27T01:13:35.408Z,0
2017-02-27T01:14:46.103Z,0
2017-02-27T01:15:56.829Z,0
2017-02-27T01:17:07.146Z,0
2017-02-27T01:18:17.437Z,0
2017-02-27T01:19:27.356Z,0
2017-02-27T01:20:37.673Z,0
2017-02-27T01:21:48.371Z,0
2017-02-27T01:22:59.081Z,0
2017-02-27T01:24:09.775Z,0
2017-02-27T01:25:20.465Z,0
2017-02-27T01:26:31.163Z,0
2017-02-27T01:27:41.067Z,0
2017-02-27T01:28:51.784Z,0
2017-02-27T01:30:02.125Z,0
2017-02-27T01:31:12.456Z,0
2017-02-27T01:32:23.154Z,0
2017-02-27T01:33:33.462Z,0
2017-02-27T01:34:44.180Z,0
2017-02-27T01:52:48.792Z,0
2017-02-27T01:53:59.524Z,0
2017-02-27T01:55:10.244Z,0
2017-02-27T01:56:20.966Z,0
2017-02-27T01:57:31.675Z,0
2017-02-27T01:58:42.385Z,0
2017-02-27T01:59:52.685Z,0
2017-02-27T02:01:03.382Z,0
2017-02-27T02:02:14.103Z,0
2017-02-27T02:03:24.825Z,0
2017-02-27T02:04:35.522Z,0
2017-02-27T02:05:45.836Z,0
2017-02-27T02:06:55.343Z,0
2017-02-27T02:08:06.056Z,0
2017-02-27T02:09:16.772Z,0
2017-02-27T02:10:27.484Z,0
2017-02-27T02:11:38.194Z,0
2017-02-27T02:12:48.897Z,0
2017-02-27T02:13:59.604Z,0
2017-02-27T02:15:10.317Z,0
2017-02-27T02:16:20.615Z,0
2017-02-27T02:17:30.931Z,0
2017-02-27T02:18:41.623Z,0
2017-02-27T02:19:52.337Z,0
2017-02-27T02:21:03.032Z,0
2017-02-27T02:22:13.356Z,0
2017-02-27T02:23:23.264Z,0
2017-02-27T02:24:33.576Z,0
2017-02-27T02:25:44.283Z,0
2017-02-27T02:26:54.973Z,0
2017-02-27T02:28:05.669Z,0
2017-02-27T02:29:16.383Z,0
2017-02-27T02:30:27.084Z,0
2017-02-27T02:31:37.807Z,0
2017-02-27T02:32:48.113Z,0
2017-02-27T02:33:58.829Z,0
2017-02-27T02:35:09.536Z,0
2017-02-27T02:36:20.281Z,0
2017-02-27T02:37:30.597Z,0
2017-02-27T02:38:41.323Z,0
2017-02-27T02:39:51.660Z,0
2017-02-27T02:41:02.402Z,0
2017-02-27T02:42:13.091Z,0
2017-02-27T02:43:23.791Z,0
2017-02-27T02:44:34.511Z,0
2017-02-27T02:45:45.203Z,0
2017-02-27T02:46:55.110Z,0
2017-02-27T02:48:05.844Z,0
2017-02-27T02:49:16.153Z,0
2017-02-27T02:50:26.481Z,0
2017-02-27T02:51:37.192Z,0
2017-02-27T02:52:47.898Z,0
2017-02-27T02:53:58.603Z,0
2017-02-27T02:55:09.325Z,0
2017-02-27T02:56:20.043Z,0
2017-02-27T02:57:30.770Z,0
2017-02-27T02:58:41.476Z,0
2017-02-27T02:59:52.185Z,0
2017-02-27T03:01:02.482Z,0
2017-02-27T03:02:12.787Z,0
2017-02-27T03:03:23.497Z,0
2017-02-27T03:04:34.229Z,0
2017-02-27T03:05:44.944Z,0
2017-02-27T03:06:55.656Z,0
2017-02-27T03:08:05.971Z,0
2017-02-27T03:09:16.662Z,0
2017-02-27T03:10:27.388Z,0
2017-02-27T03:11:37.288Z,0
2017-02-27T03:12:47.984Z,0
2017-02-27T03:13:58.686Z,0
2017-02-27T03:15:09.377Z,0
2017-02-27T03:16:19.678Z,0
2017-02-27T03:17:30.013Z,0
2017-02-27T03:18:40.327Z,0
2017-02-27T03:19:51.032Z,0
2017-02-27T03:21:01.739Z,0
2017-02-27T03:22:12.439Z,0
2017-02-27T03:23:23.145Z,0
2017-02-27T03:24:33.850Z,0
2017-02-27T03:25:44.558Z,0
2017-02-27T03:26:55.272Z,0
2017-02-27T03:28:05.973Z,0
2017-02-27T03:29:16.291Z,0
2017-02-27T03:30:26.989Z,0
2017-02-27T03:31:37.692Z,0
2017-02-27T03:32:48.010Z,0
2017-02-27T03:33:58.307Z,0
2017-02-27T03:35:08.623Z,0
2017-02-27T03:36:19.343Z,0
2017-02-27T03:37:29.660Z,0
2017-02-27T03:38:40.363Z,0
2017-02-27T03:39:51.082Z,0
2017-02-27T03:41:01.393Z,0
2017-02-27T03:42:11.715Z,0
2017-02-27T03:43:22.417Z,0
2017-02-27T03:44:32.326Z,0
2017-02-27T03:45:43.035Z,0
2017-02-27T03:46:53.341Z,0
2017-02-27T03:48:04.051Z,0
2017-02-27T03:49:14.763Z,0
2017-02-27T03:50:24.674Z,0
2017-02-27T03:51:35.388Z,0
2017-02-27T03:52:45.327Z,0
2017-02-27T03:53:56.030Z,0
2017-02-27T03:55:06.759Z,0
2017-02-27T03:56:17.456Z,0
2017-02-27T03:57:27.759Z,0
2017-02-27T03:58:38.461Z,0
2017-02-27T03:59:48.793Z,0
2017-02-27T04:00:59.485Z,0
2017-02-27T04:02:10.231Z,0
2017-02-27T04:03:20.543Z,0
2017-02-27T04:04:30.865Z,0
2017-02-27T04:05:41.574Z,0
2017-02-27T04:06:52.263Z,0
2017-02-27T04:08:03.011Z,0
2017-02-27T04:09:13.721Z,0
2017-02-27T04:10:24.438Z,0
2017-02-27T04:11:35.131Z,0
2017-02-27T04:12:45.833Z,0
2017-02-27T04:13:56.578Z,0
2017-02-27T04:15:06.904Z,0
2017-02-27T04:16:17.601Z,0
2017-02-27T04:17:27.536Z,0
2017-02-27T04:18:38.230Z,0
2017-02-27T04:19:48.545Z,0
2017-02-27T04:20:58.458Z,0
2017-02-27T04:22:08.768Z,0
2017-02-27T04:23:19.486Z,0
2017-02-27T04:24:29.796Z,0
2017-02-27T04:25:40.511Z,0
2017-02-27T04:26:51.202Z,0
2017-02-27T04:28:01.912Z,0
2017-02-27T04:29:12.607Z,0
2017-02-27T04:30:22.922Z,0
2017-02-27T04:31:33.233Z,0
2017-02-27T04:32:43.927Z,0
2017-02-27T04:33:54.237Z,0
2017-02-27T04:35:04.563Z,0
2017-02-27T04:36:15.273Z,0
2017-02-27T04:37:25.564Z,0
2017-02-27T04:38:35.880Z,0
2017-02-27T04:39:46.592Z,0
2017-02-27T04:40:56.887Z,0
2017-02-27T04:42:07.599Z,0
2017-02-27T04:43:18.308Z,0
2017-02-27T04:44:28.629Z,0
2017-02-27T04:45:39.333Z,0
2017-02-27T04:46:50.054Z,0
2017-02-27T04:48:00.348Z,0
2017-02-27T04:49:11.081Z,0
2017-02-27T04:50:21.379Z,0
2017-02-27T04:51:32.093Z,0
2017-02-27T04:52:42.405Z,0
2017-02-27T04:53:52.721Z,0
2017-02-27T04:55:03.015Z,0
2017-02-27T04:56:13.334Z,0
2017-02-27T04:57:24.040Z,0
2017-02-27T04:58:34.748Z,0
2017-02-27T04:59:45.448Z,0
2017-02-27T05:00:55.348Z,0
2017-02-27T05:02:06.046Z,0
2017-02-27T05:03:16.756Z,0
2017-02-27T05:04:27.056Z,0
2017-02-27T05:05:37.776Z,0
2017-02-27T05:06:48.480Z,0
2017-02-27T05:07:59.181Z,0
2017-02-27T05:09:09.874Z,0
2017-02-27T05:10:20.578Z,0
2017-02-27T05:11:31.288Z,0
2017-02-27T05:12:41.982Z,0
2017-02-27T05:13:52.684Z,0
2017-02-27T05:15:03.390Z,0
2017-02-27T05:16:13.685Z,0
2017-02-27T05:17:24.399Z,0
2017-02-27T05:18:35.118Z,0
2017-02-27T05:19:45.831Z,0
2017-02-27T05:20:56.138Z,0
2017-02-27T05:22:06.451Z,0
2017-02-27T05:23:17.162Z,0
2017-02-27T05:24:27.848Z,0
2017-02-27T05:25:38.157Z,0
2017-02-27T05:26:48.059Z,0
2017-02-27T05:27:58.759Z,0
2017-02-27T05:29:09.462Z,0
2017-02-27T05:30:20.170Z,0
2017-02-27T05:31:30.476Z,0
2017-02-27T05:32:41.189Z,0
2017-02-27T05:33:51.906Z,0
2017-02-27T05:35:02.216Z,0
2017-02-27T05:36:12.918Z,0
2017-02-27T05:37:23.632Z,0
2017-02-27T05:38:34.365Z,0
2017-02-27T05:39:45.072Z,0
2017-02-27T05:40:55.793Z,0
2017-02-27T05:42:06.503Z,0
2017-02-27T05:43:17.250Z,0
2017-02-27T05:44:27.540Z,4
2017-02-27T05:45:38.252Z,4
2017-02-27T05:46:48.951Z,0
2017-02-27T05:47:59.652Z,4
2017-02-27T05:49:10.368Z,4
2017-02-27T05:50:21.057Z,4
2017-02-27T05:51:30.572Z,4
2017-02-27T05:52:40.889Z,4
2017-02-27T05:53:51.604Z,8
2017-02-27T05:55:01.933Z,8
2017-02-27T05:56:12.261Z,8
2017-02-27T05:57:22.963Z,12
2017-02-27T05:58:33.673Z,16
2017-02-27T05:59:44.375Z,16
2017-02-27T06:00:55.085Z,24
2017-02-27T06:02:05.785Z,24
2017-02-27T06:03:16.131Z,28
2017-02-27T06:04:26.439Z,28
2017-02-27T06:05:36.742Z,36
2017-02-27T06:06:47.430Z,36
2017-02-27T06:07:58.131Z,44
2017-02-27T06:09:08.836Z,48
2017-02-27T06:10:19.264Z,52
2017-02-27T06:11:29.986Z,60
2017-02-27T06:12:40.689Z,68
2017-02-27T06:13:51.429Z,72
2017-02-27T06:15:01.729Z,80
2017-02-27T06:16:12.023Z,84
2017-02-27T06:17:22.725Z,88
2017-02-27T06:18:33.428Z,92
2017-02-27T06:19:44.161Z,100
2017-02-27T06:20:54.863Z,112
2017-02-27T06:22:05.180Z,132
2017-02-27T06:23:15.497Z,152
2017-02-27T06:24:26.213Z,176
2017-02-27T06:25:36.967Z,192
2017-02-27T06:26:47.269Z,212
2017-02-27T06:27:57.592Z,236
2017-02-27T06:29:08.299Z,268
2017-02-27T06:30:19.005Z,292
2017-02-27T06:31:29.704Z,312
2017-02-27T06:32:40.415Z,336
2017-02-27T06:33:50.739Z,352
2017-02-27T06:35:01.463Z,372
2017-02-27T06:36:12.161Z,392
2017-02-27T06:37:22.866Z,424
2017-02-27T06:38:33.164Z,440
2017-02-27T06:39:43.876Z,452
2017-02-27T06:40:54.583Z,468
2017-02-27T06:42:04.892Z,516
2017-02-27T06:43:15.214Z,564
2017-02-27T06:44:25.927Z,600
2017-02-27T06:45:36.643Z,676
2017-02-27T06:46:47.379Z,724
2017-02-27T06:47:58.073Z,760
2017-02-27T06:49:08.779Z,804
2017-02-27T06:50:19.494Z,844
2017-02-27T06:51:29.793Z,880
2017-02-27T06:52:40.506Z,928
2017-02-27T06:53:51.201Z,996
2017-02-27T06:55:01.908Z,1084
2017-02-27T06:56:12.634Z,1156
2017-02-27T06:57:22.941Z,1220
2017-02-27T06:58:33.653Z,1256
2017-02-27T06:59:44.361Z,1276
2017-02-27T07:00:55.060Z,1280
2017-02-27T07:02:05.771Z,1332
2017-02-27T07:03:16.071Z,1384
2017-02-27T07:04:26.761Z,1468
2017-02-27T07:05:37.479Z,1520
2017-02-27T07:06:48.198Z,1572
2017-02-27T07:07:58.910Z,1568
2017-02-27T07:09:09.644Z,1612
2017-02-27T07:10:20.333Z,1680
2017-02-27T07:11:31.062Z,1792
2017-02-27T07:12:41.766Z,1924
2017-02-27T07:13:52.485Z,2024
2017-02-27T07:15:03.195Z,2072
2017-02-27T07:16:13.903Z,2108
2017-02-27T07:17:24.632Z,2160
2017-02-27T07:18:35.324Z,2244
2017-02-27T07:19:46.050Z,2344
2017-02-27T07:20:56.369Z,2428
2017-02-27T07:22:07.094Z,2500
2017-02-27T07:23:17.799Z,2548
2017-02-27T07:24:28.496Z,2632
2017-02-27T07:25:38.400Z,2732
2017-02-27T07:26:49.133Z,2900
2017-02-27T07:27:59.836Z,3268
2017-02-27T07:29:10.568Z,3620
2017-02-27T07:30:21.314Z,4096
2017-02-27T07:31:32.018Z,4216
2017-02-27T07:32:42.708Z,4468
2017-02-27T07:33:53.422Z,4872
2017-02-27T07:35:04.142Z,5416
2017-02-27T07:36:14.853Z,5884
2017-02-27T07:37:25.544Z,6284
2017-02-27T07:38:36.286Z,6532
2017-02-27T07:39:46.986Z,6500
2017-02-27T07:40:57.717Z,6660
2017-02-27T07:42:08.428Z,6652
2017-02-27T07:43:19.137Z,6392
2017-02-27T07:44:29.841Z,6168
2017-02-27T07:45:40.565Z,6380
2017-02-27T07:46:51.274Z,6488
2017-02-27T07:48:01.979Z,6264
2017-02-27T07:49:12.673Z,5964
2017-02-27T07:50:23.373Z,6036
2017-02-27T07:51:34.080Z,5976
2017-02-27T07:52:44.788Z,5912
2017-02-27T07:53:55.495Z,5436
2017-02-27T07:55:06.199Z,5512
2017-02-27T07:56:16.917Z,5912
2017-02-27T07:57:27.622Z,6252
2017-02-27T07:58:38.326Z,6096
2017-02-27T07:59:49.039Z,5460
2017-02-27T08:00:59.741Z,5524
2017-02-27T08:02:10.435Z,5536
2017-02-27T08:03:21.180Z,5680
2017-02-27T08:04:31.871Z,5660
2017-02-27T08:05:42.568Z,5524
2017-02-27T08:06:53.262Z,5400
2017-02-27T08:08:03.974Z,5324
2017-02-27T08:09:14.697Z,5312
2017-02-27T08:10:25.409Z,5220
2017-02-27T08:11:35.720Z,5244
2017-02-27T08:12:46.430Z,4912
2017-02-27T08:13:56.754Z,4600
2017-02-27T08:15:07.477Z,6000
2017-02-27T08:16:18.191Z,7168
2017-02-27T08:17:28.896Z,7152
2017-02-27T08:18:39.222Z,6636
2017-02-27T08:19:49.131Z,5532
2017-02-27T08:20:59.829Z,4980
2017-02-27T08:22:10.166Z,4892
2017-02-27T08:23:20.858Z,4972
2017-02-27T08:24:31.555Z,5464
2017-02-27T08:25:42.289Z,5488
2017-02-27T08:26:53.001Z,5940
2017-02-27T08:28:03.713Z,5684
2017-02-27T08:29:14.023Z,6332
2017-02-27T08:30:24.337Z,7180
2017-02-27T08:31:35.053Z,7748
2017-02-27T08:32:45.763Z,7488
2017-02-27T08:33:56.557Z,7788
2017-02-27T08:35:07.283Z,7468
2017-02-27T08:36:17.989Z,7044
2017-02-27T08:37:28.714Z,7480
2017-02-27T08:38:38.632Z,7672
2017-02-27T08:39:49.343Z,7584
2017-02-27T08:41:00.068Z,7512
2017-02-27T08:42:10.776Z,6452
2017-02-27T08:43:21.496Z,5364
2017-02-27T08:44:31.403Z,4472
2017-02-27T08:45:42.150Z,4112
2017-02-27T08:46:52.063Z,4184
2017-02-27T08:48:02.761Z,4300
2017-02-27T08:49:13.459Z,4280
2017-02-27T08:50:24.166Z,4800
2017-02-27T08:51:34.872Z,5860
2017-02-27T08:52:45.566Z,6660
2017-02-27T08:53:55.872Z,6108
2017-02-27T08:55:06.564Z,6648
2017-02-27T08:56:16.883Z,7340
2017-02-27T08:57:27.590Z,7220
2017-02-27T08:58:38.305Z,6160
2017-02-27T08:59:49.008Z,5604
2017-02-27T09:00:59.706Z,5596
2017-02-27T09:02:10.028Z,5884
2017-02-27T09:03:20.794Z,6812
2017-02-27T09:04:31.507Z,8728
2017-02-27T09:05:42.201Z,7568
2017-02-27T09:06:52.515Z,6260
2017-02-27T09:08:02.821Z,7140
2017-02-27T09:09:13.530Z,7108
2017-02-27T09:10:24.242Z,6216
2017-02-27T09:11:34.953Z,7324
2017-02-27T09:12:45.963Z,6520
2017-02-27T09:13:56.275Z,6268
2017-02-27T09:15:06.974Z,7392
2017-02-27T09:16:17.671Z,8656
2017-02-27T09:17:28.385Z,10016
2017-02-27T09:18:38.710Z,9436
2017-02-27T09:19:49.413Z,8556
2017-02-27T09:21:00.132Z,7812
2017-02-27T09:22:10.437Z,9364
2017-02-27T09:23:20.749Z,10052
2017-02-27T09:24:31.475Z,9700
2017-02-27T09:25:41.785Z,7332
2017-02-27T09:26:52.504Z,7844
2017-02-27T09:28:03.222Z,8260
2017-02-27T09:29:13.557Z,7996
2017-02-27T09:30:24.255Z,7792
2017-02-27T09:31:34.946Z,8164
2017-02-27T09:32:45.656Z,8312
2017-02-27T09:33:56.372Z,8468
2017-02-27T09:35:07.073Z,9776
2017-02-27T09:36:17.385Z,10368
2017-02-27T09:37:27.292Z,12156
2017-02-27T09:38:37.993Z,13064
2017-02-27T09:39:48.715Z,13660
2017-02-27T09:40:59.434Z,13820
2017-02-27T09:42:10.136Z,12344
2017-02-27T09:43:20.870Z,11972
2017-02-27T09:44:31.199Z,11576
2017-02-27T09:45:41.897Z,11932
2017-02-27T09:46:52.217Z,11696
2017-02-27T09:48:02.917Z,9328
2017-02-27T09:49:13.622Z,10592
2017-02-27T09:50:24.316Z,13120
2017-02-27T09:51:35.033Z,10948
2017-02-27T09:52:45.755Z,9936
2017-02-27T09:53:56.468Z,11272
2017-02-27T09:55:07.185Z,10764
2017-02-27T09:56:17.911Z,11836
2017-02-27T09:57:28.614Z,13280
2017-02-27T09:58:39.331Z,13644
2017-02-27T09:59:49.647Z,11232
2017-02-27T10:01:00.353Z,12320
2017-02-27T10:02:11.093Z,9292
2017-02-27T10:03:21.814Z,10008
2017-02-27T10:04:32.522Z,10660
2017-02-27T10:05:43.224Z,11780
2017-02-27T10:06:53.540Z,10448
2017-02-27T10:08:04.258Z,11520
2017-02-27T10:09:14.574Z,13868
2017-02-27T10:10:25.304Z,13908
2017-02-27T10:11:36.027Z,15900
2017-02-27T10:12:46.730Z,14396
2017-02-27T10:13:57.497Z,13900
2017-02-27T10:15:08.222Z,13696
2017-02-27T10:16:18.932Z,14476
2017-02-27T10:17:29.675Z,15664
2017-02-27T10:18:40.382Z,15132
2017-02-27T10:19:51.104Z,12644
2017-02-27T10:21:01.813Z,13444
2017-02-27T10:22:12.126Z,13880
2017-02-27T10:23:22.435Z,13316
2017-02-27T10:24:32.342Z,13316
2017-02-27T10:25:42.660Z,13512
2017-02-27T10:26:53.367Z,12824
2017-02-27T10:28:04.069Z,12632
2017-02-27T10:29:14.787Z,12860
2017-02-27T10:30:25.095Z,12528
2017-02-27T10:31:35.806Z,12592
2017-02-27T10:32:46.517Z,13792
2017-02-27T10:33:57.226Z,13036
2017-02-27T10:35:07.945Z,11904
2017-02-27T10:36:18.652Z,12464
2017-02-27T10:37:29.351Z,13628
2017-02-27T10:38:40.068Z,17760
2017-02-27T10:39:50.822Z,14488
2017-02-27T10:41:01.526Z,15380
2017-02-27T10:42:12.236Z,14720
2017-02-27T10:43:22.543Z,14024
2017-02-27T10:44:33.264Z,13720
2017-02-27T10:45:43.969Z,11776
2017-02-27T10:46:54.695Z,11476
2017-02-27T10:48:05.407Z,11140
2017-02-27T10:49:16.115Z,11240
2017-02-27T10:50:26.850Z,11752
2017-02-27T10:51:37.223Z,12104
2017-02-27T10:52:47.941Z,12920
2017-02-27T10:53:58.697Z,12728
2017-02-27T10:55:09.412Z,11744
2017-02-27T10:56:20.114Z,10948
2017-02-27T10:57:30.814Z,10332
2017-02-27T10:58:41.527Z,9968
2017-02-27T10:59:52.260Z,9520
2017-02-27T11:01:02.973Z,9452
2017-02-27T11:02:13.693Z,9992
2017-02-27T11:03:24.396Z,12676
2017-02-27T11:04:35.131Z,12320
2017-02-27T11:05:45.839Z,11988
2017-02-27T11:06:56.580Z,11200
2017-02-27T11:08:07.300Z,9688
2017-02-27T11:09:18.008Z,10120
2017-02-27T11:10:28.724Z,9852
2017-02-27T11:11:39.461Z,10968
2017-02-27T11:12:50.162Z,18144
2017-02-27T11:14:00.864Z,13320
2017-02-27T11:15:11.577Z,26048
2017-02-27T11:16:22.301Z,32512
2017-02-27T11:17:33.015Z,26336
2017-02-27T11:18:43.723Z,32960
2017-02-27T11:19:54.421Z,15376
2017-02-27T11:21:04.747Z,35008
2017-02-27T11:22:15.468Z,19008
2017-02-27T11:23:26.191Z,15828
2017-02-27T11:24:36.491Z,14388
2017-02-27T11:25:47.867Z,12824
2017-02-27T11:26:58.580Z,14060
2017-02-27T11:28:08.912Z,21440
2017-02-27T11:29:19.638Z,26752
2017-02-27T11:30:30.376Z,31872
2017-02-27T11:31:41.912Z,29088
2017-02-27T11:32:53.285Z,17248
2017-02-27T11:34:04.323Z,21408
2017-02-27T11:35:15.407Z,23424
2017-02-27T11:36:26.510Z,29088
2017-02-27T11:37:37.705Z,39552
2017-02-27T11:38:48.346Z,24704
2017-02-27T11:39:59.184Z,30944
2017-02-27T11:41:09.915Z,37632
2017-02-27T11:42:20.625Z,40608
2017-02-27T11:43:30.946Z,35008
2017-02-27T11:44:41.662Z,33216
2017-02-27T11:45:52.401Z,36160
2017-02-27T11:47:03.126Z,30496
2017-02-27T11:48:13.863Z,36416
2017-02-27T11:49:24.570Z,40832
2017-02-27T11:50:35.313Z,42336
2017-02-27T11:51:46.022Z,41856
2017-02-27T11:52:56.738Z,38016
2017-02-27T11:54:07.511Z,20928
2017-02-27T11:55:17.837Z,15180
2017-02-27T11:56:28.553Z,21472
2017-02-27T11:57:38.876Z,28128
2017-02-27T11:58:48.828Z,42848
2017-02-27T11:59:59.137Z,30496
2017-02-27T12:01:09.466Z,47872
2017-02-27T12:02:20.182Z,46880
2017-02-27T12:03:32.653Z,42080
2017-02-27T12:04:43.374Z,30368
2017-02-27T12:05:54.092Z,29824
2017-02-27T12:07:04.814Z,27808
2017-02-27T12:08:15.552Z,24480
2017-02-27T12:09:28.672Z,25152
2017-02-27T12:10:39.397Z,25536
2017-02-27T12:11:50.115Z,25312
2017-02-27T12:13:00.834Z,24128
2017-02-27T12:14:11.620Z,18720
2017-02-27T12:15:22.377Z,19584
2017-02-27T12:16:32.702Z,20320
2017-02-27T12:17:43.054Z,18368
2017-02-27T12:18:53.418Z,17664
2017-02-27T12:20:04.137Z,15992
2017-02-27T12:21:14.853Z,20576
2017-02-27T12:22:25.188Z,23648
2017-02-27T12:23:35.916Z,22528
2017-02-27T12:24:45.833Z,21248
2017-02-27T12:25:56.155Z,17312
2017-02-27T12:27:06.077Z,22080
2017-02-27T12:28:16.388Z,21312
2017-02-27T12:29:27.119Z,20480
2017-02-27T12:30:37.071Z,19968
2017-02-27T12:31:47.414Z,15376
2017-02-27T12:32:58.149Z,21408
2017-02-27T12:34:08.878Z,19136
2017-02-27T12:35:19.203Z,15140
2017-02-27T12:36:29.920Z,24448
2017-02-27T12:37:40.650Z,24032
2017-02-27T12:38:50.989Z,25120
2017-02-27T12:40:01.731Z,23456
2017-02-27T12:41:12.106Z,24416
2017-02-27T12:42:22.835Z,23904
2017-02-27T12:43:33.571Z,22080
2017-02-27T12:44:44.303Z,24672
2017-02-27T12:45:55.028Z,18464
2017-02-27T12:47:05.362Z,19072
2017-02-27T12:48:16.088Z,18880
2017-02-27T12:49:26.829Z,21696
2017-02-27T12:50:36.761Z,11136
2017-02-27T12:51:47.492Z,19232
2017-02-27T12:52:58.243Z,25408
2017-02-27T12:54:08.980Z,25344
2017-02-27T12:55:19.708Z,25344
2017-02-27T12:56:30.446Z,23840
2017-02-27T12:57:40.369Z,21664
2017-02-27T12:58:50.709Z,13032
2017-02-27T13:00:01.438Z,16512
2017-02-27T13:01:12.169Z,16640
2017-02-27T13:02:22.513Z,18304
2017-02-27T13:03:33.231Z,20352
2017-02-27T13:04:43.964Z,16064
2017-02-27T13:05:54.687Z,16384
2017-02-27T13:07:05.413Z,16896
2017-02-27T13:08:15.740Z,16352
2017-02-27T13:09:26.056Z,17056
2017-02-27T13:10:36.802Z,16832
2017-02-27T13:11:47.516Z,11524
2017-02-27T13:12:58.242Z,13292
2017-02-27T13:14:08.967Z,12304
2017-02-27T13:15:19.707Z,10048
2017-02-27T13:16:30.441Z,10580
2017-02-27T13:17:41.186Z,12392
2017-02-27T13:18:51.900Z,12208
2017-02-27T13:20:02.231Z,8960
2017-02-27T13:21:12.966Z,10364
2017-02-27T13:22:23.695Z,9896
2017-02-27T13:23:34.418Z,10712
2017-02-27T13:24:45.146Z,11060
2017-02-27T13:25:55.873Z,12404
2017-02-27T13:27:06.604Z,12984
2017-02-27T13:28:17.338Z,12512
2017-02-27T13:29:28.049Z,12136
2017-02-27T13:30:38.763Z,12104
2017-02-27T13:31:49.478Z,12092
2017-02-27T13:33:00.244Z,13244
2017-02-27T13:34:10.177Z,14020
2017-02-27T13:35:20.508Z,15448
2017-02-27T13:36:31.219Z,15700
2017-02-27T13:37:41.948Z,17120
2017-02-27T13:38:52.689Z,15696
2017-02-27T13:40:03.401Z,13772
2017-02-27T13:41:13.735Z,12660
2017-02-27T13:42:24.453Z,13472
2017-02-27T13:43:35.195Z,14884
2017-02-27T13:44:45.523Z,20480
2017-02-27T13:45:56.247Z,16256
2017-02-27T13:47:06.573Z,22176
2017-02-27T13:48:16.888Z,15492
2017-02-27T13:49:27.233Z,18272
2017-02-27T13:50:37.551Z,13400
2017-02-27T13:51:48.274Z,13972
2017-02-27T13:52:58.589Z,17952
2017-02-27T13:54:09.328Z,17440
2017-02-27T13:55:20.062Z,13828
2017-02-27T13:56:29.998Z,18688
2017-02-27T13:57:40.332Z,15196
2017-02-27T13:58:50.257Z,13428
2017-02-27T14:00:01.001Z,12496
2017-02-27T14:01:11.707Z,11572
2017-02-27T14:02:22.011Z,11196
2017-02-27T14:03:32.739Z,10632
2017-02-27T14:04:43.482Z,9796
2017-02-27T14:05:54.197Z,9304
2017-02-27T14:07:04.929Z,8584
2017-02-27T14:08:15.665Z,8664
2017-02-27T14:09:25.973Z,8796
2017-02-27T14:10:36.693Z,8944
2017-02-27T14:11:47.410Z,8704
2017-02-27T14:12:58.142Z,9236
2017-02-27T14:14:08.855Z,9844
2017-02-27T14:15:19.571Z,9440
2017-02-27T14:16:30.307Z,8956
2017-02-27T14:17:40.614Z,8756
2017-02-27T14:18:51.321Z,8748
2017-02-27T14:20:01.644Z,8780
2017-02-27T14:21:12.356Z,8672
2017-02-27T14:22:23.079Z,8756
2017-02-27T14:23:33.391Z,9184
2017-02-27T14:24:44.092Z,9580
2017-02-27T14:25:54.801Z,10112
2017-02-27T14:27:05.536Z,9888
2017-02-27T14:28:15.856Z,8668
2017-02-27T14:29:26.587Z,8140
2017-02-27T14:30:36.926Z,7732
2017-02-27T14:31:47.245Z,7316
2017-02-27T14:32:57.963Z,7228
2017-02-27T14:34:08.293Z,7440
2017-02-27T14:35:19.004Z,7808
2017-02-27T14:36:29.717Z,7792
2017-02-27T14:37:40.063Z,7320
2017-02-27T14:38:50.810Z,7116
2017-02-27T14:40:01.532Z,6968
2017-02-27T14:41:12.257Z,6960
2017-02-27T14:42:22.995Z,6872
2017-02-27T14:43:33.728Z,6704
2017-02-27T14:44:44.463Z,7084
2017-02-27T14:45:55.179Z,7568
2017-02-27T14:47:05.892Z,7716
2017-02-27T14:48:16.226Z,7524
2017-02-27T14:49:26.550Z,7204
2017-02-27T14:50:37.265Z,6808
2017-02-27T14:51:47.563Z,6360
2017-02-27T14:52:57.894Z,6024
2017-02-27T14:54:08.618Z,5760
2017-02-27T14:55:18.932Z,5408
2017-02-27T14:56:29.646Z,5072
2017-02-27T14:57:40.363Z,4808
2017-02-27T14:58:51.100Z,4592
2017-02-27T15:00:01.423Z,4496
2017-02-27T15:01:12.127Z,4528
2017-02-27T15:02:22.459Z,4624
2017-02-27T15:03:32.780Z,4688
2017-02-27T15:04:43.489Z,4688
2017-02-27T15:05:54.196Z,4732
2017-02-27T15:07:04.919Z,4872
2017-02-27T15:08:15.629Z,5028
2017-02-27T15:09:26.347Z,5052
2017-02-27T15:10:36.679Z,4944
2017-02-27T15:11:47.385Z,4856
2017-02-27T15:12:58.101Z,4764
2017-02-27T15:14:08.827Z,4684
2017-02-27T15:15:19.542Z,4556
2017-02-27T15:16:29.860Z,4372
2017-02-27T15:17:40.576Z,4196
2017-02-27T15:18:50.884Z,3992
2017-02-27T15:20:01.209Z,3756
2017-02-27T15:21:11.929Z,3588
2017-02-27T15:22:22.659Z,3468
2017-02-27T15:23:33.371Z,3360
2017-02-27T15:24:44.074Z,3208
2017-02-27T15:25:54.385Z,3052
2017-02-27T15:27:05.091Z,2884
2017-02-27T15:28:15.810Z,2712
2017-02-27T15:29:26.516Z,2568
2017-02-27T15:30:37.225Z,2464
2017-02-27T15:31:47.931Z,2412
2017-02-27T15:32:58.684Z,2408
2017-02-27T15:34:09.400Z,2432
2017-02-27T15:35:20.124Z,2448
2017-02-27T15:36:30.839Z,2416
2017-02-27T15:37:41.167Z,2352
2017-02-27T15:38:51.911Z,2224
2017-02-27T15:40:02.608Z,2092
2017-02-27T15:41:13.327Z,1984
2017-02-27T15:42:23.660Z,1896
2017-02-27T15:43:34.365Z,1860
2017-02-27T15:44:44.697Z,1904
2017-02-27T15:45:55.408Z,1948
2017-02-27T15:47:06.134Z,1932
2017-02-27T15:48:16.854Z,1880
2017-02-27T15:49:27.553Z,1816
2017-02-27T15:50:37.868Z,1744
2017-02-27T15:51:48.584Z,1664
2017-02-27T15:52:59.306Z,1580
2017-02-27T15:54:10.020Z,1508
2017-02-27T15:55:20.747Z,1452
2017-02-27T15:56:31.471Z,1404
2017-02-27T15:57:41.386Z,1356
2017-02-27T15:58:52.126Z,1284
2017-02-27T16:00:02.854Z,1188
2017-02-27T16:01:13.576Z,1064
2017-02-27T16:02:24.301Z,940
2017-02-27T16:03:35.004Z,832
2017-02-27T16:04:45.718Z,756
2017-02-27T16:05:55.649Z,700
2017-02-27T16:07:06.367Z,660
2017-02-27T16:08:17.080Z,632
2017-02-27T16:09:27.802Z,604
2017-02-27T16:10:38.512Z,576
2017-02-27T16:11:49.223Z,556
2017-02-27T16:12:59.933Z,540
2017-02-27T16:14:10.254Z,520
2017-02-27T16:15:20.179Z,500
2017-02-27T16:16:30.896Z,476
2017-02-27T16:17:41.612Z,456
2017-02-27T16:18:52.327Z,428
2017-02-27T16:20:03.024Z,396
2017-02-27T16:21:13.346Z,356
2017-02-27T16:22:24.057Z,324
2017-02-27T16:23:34.764Z,292
2017-02-27T16:24:45.485Z,264
2017-02-27T16:25:56.187Z,244